Time;durP1;ratioP1;P1;durP2;ratioP2;P2;SDS_P1;SDS_P2;PMS_P1;PMS_P2;Temp;Humidity;BMP_temperature;BMP_pressure;BME280_temperature;BME280_humidity;BME280_pressure;Samples;Min_cycle;Max_cycle;Signal;HPM_P1;HPM_P2
2022/04/10 00:00:28;;;;;;;2.75;2.15;;;;;;;;;;6220628;28;20072;-83
2022/04/10 00:03:41;;;;;;;2.28;1.75;;;;;;;;;;6219998;28;20067;-84
2022/04/10 00:06:44;;;;;;;3.15;2.22;;;;;;;;;;6220070;28;20045;-86
2022/04/10 00:09:47;;;;;;;4.32;2.80;;;;;;;;;;6219915;28;20046;-83
2022/04/10 00:12:50;;;;;;;3.15;2.42;;;;;;;;;;6219879;28;20054;-81
2022/04/10 00:15:53;;;;;;;5.25;2.28;;;;;;;;;;6219023;28;20046;-87
2022/04/10 00:19:01;;;;;;;5.05;2.92;;;;;;;;;;6219871;28;20042;-87
2022/04/10 00:22:04;;;;;;;2.92;2.38;;;;;;;;;;6220036;28;20057;-87
2022/04/10 00:25:08;;;;;;;4.82;2.70;;;;;;;;;;6217889;28;20045;-88
2022/04/10 00:28:11;;;;;;;3.75;2.58;;;;;;;;;;6218340;28;20056;-86
2022/04/10 00:31:14;;;;;;;2.88;2.50;;;;;;;;;;6218802;28;20045;-86
2022/04/10 00:34:18;;;;;;;3.58;2.38;;;;;;;;;;6219588;28;20053;-85
2022/04/10 00:37:21;;;;;;;4.03;2.45;;;;;;;;;;6218233;28;20096;-85
2022/04/10 00:40:24;;;;;;;3.55;2.60;;;;;;;;;;6219337;28;20164;-85
2022/04/10 00:43:32;;;;;;;2.22;1.90;;;;;;;;;;6219794;28;20167;-85
2022/04/10 00:46:35;;;;;;;5.55;2.50;;;;;;;;;;6217257;28;20073;-86
2022/04/10 00:49:40;;;;;;;4.65;2.75;;;;;;;;;;6217882;28;20054;-88
2022/04/10 00:52:44;;;;;;;4.53;2.75;;;;;;;;;;6219209;28;20503;-86
2022/04/10 00:55:47;;;;;;;3.33;2.55;;;;;;;;;;6217435;28;20451;-84
2022/04/10 00:58:50;;;;;;;5.13;2.78;;;;;;;;;;6218030;28;20111;-85
2022/04/10 01:01:54;;;;;;;3.38;2.13;;;;;;;;;;6218667;28;20042;-81
2022/04/10 01:05:15;;;;;;;2.75;2.35;;;;;;;;;;6219110;28;20489;-83
2022/04/10 01:08:19;;;;;;;3.20;2.38;;;;;;;;;;6217770;28;20057;-84
2022/04/10 01:11:22;;;;;;;7.20;2.60;;;;;;;;;;6218669;28;20049;-83
2022/04/10 01:14:26;;;;;;;3.03;2.47;;;;;;;;;;6217616;28;20050;-82
2022/04/10 01:17:29;;;;;;;4.75;2.65;;;;;;;;;;6216788;28;20509;-80
2022/04/10 01:20:34;;;;;;;3.25;2.33;;;;;;;;;;6216929;28;20111;-81
2022/04/10 01:23:44;;;;;;;3.22;2.55;;;;;;;;;;6216683;28;20062;-83
2022/04/10 01:26:47;;;;;;;3.90;2.70;;;;;;;;;;6217493;28;20052;-84
2022/04/10 01:29:55;;;;;;;2.92;2.50;;;;;;;;;;6216161;28;20072;-80
2022/04/10 01:32:58;;;;;;;3.88;2.80;;;;;;;;;;6217467;28;20049;-83
2022/04/10 01:36:02;;;;;;;3.35;2.63;;;;;;;;;;6217527;28;20050;-82
2022/04/10 01:39:07;;;;;;;4.47;2.95;;;;;;;;;;6216554;28;20061;-81
2022/04/10 01:42:12;;;;;;;3.33;2.40;;;;;;;;;;6216805;28;20049;-84
2022/04/10 01:45:16;;;;;;;4.93;2.67;;;;;;;;;;6216934;28;20107;-83
2022/04/10 01:48:19;;;;;;;4.55;2.60;;;;;;;;;;6217136;28;20085;-84
2022/04/10 01:51:25;;;;;;;4.68;2.80;;;;;;;;;;6215898;28;20053;-80
2022/04/10 01:54:31;;;;;;;5.03;2.60;;;;;;;;;;6216772;28;20564;-83
2022/04/10 01:57:34;;;;;;;3.72;2.50;;;;;;;;;;6216737;28;20104;-82
2022/04/10 02:00:37;;;;;;;4.65;2.78;;;;;;;;;;6215985;28;20046;-82
2022/04/10 02:03:43;;;;;;;5.07;3.00;;;;;;;;;;6216764;28;20060;-82
2022/04/10 02:06:45;;;;;;;6.13;3.05;;;;;;;;;;6217512;28;20049;-83
2022/04/10 02:09:50;;;;;;;4.65;3.45;;;;;;;;;;6216938;28;20038;-82
2022/04/10 02:12:53;;;;;;;4.38;2.97;;;;;;;;;;6217085;28;20591;-83
2022/04/10 02:15:56;;;;;;;6.78;3.45;;;;;;;;;;6217910;28;20046;-83
2022/04/10 02:18:59;;;;;;;4.78;3.00;;;;;;;;;;6216707;28;20497;-82
2022/04/10 02:22:03;;;;;;;3.60;3.10;;;;;;;;;;6215350;28;20068;-82
2022/04/10 02:25:09;;;;;;;3.88;3.00;;;;;;;;;;6216206;28;20042;-82
2022/04/10 02:28:12;;;;;;;3.63;3.00;;;;;;;;;;6216063;28;20050;-82
2022/04/10 02:31:16;;;;;;;5.05;3.00;;;;;;;;;;6216063;28;20168;-80
2022/04/10 02:34:19;;;;;;;3.75;2.90;;;;;;;;;;6215797;28;20045;-80
2022/04/10 02:37:22;;;;;;;5.72;3.03;;;;;;;;;;6215957;28;20169;-81
2022/04/10 02:40:27;;;;;;;4.72;3.17;;;;;;;;;;6216431;28;20643;-81
2022/04/10 02:43:30;;;;;;;3.88;3.05;;;;;;;;;;6215406;28;20065;-81
2022/04/10 02:46:38;;;;;;;3.47;3.00;;;;;;;;;;6216421;28;20092;-82
2022/04/10 02:49:41;;;;;;;4.22;3.03;;;;;;;;;;6215948;28;20042;-82
2022/04/10 02:52:46;;;;;;;3.80;3.08;;;;;;;;;;6215519;28;20046;-81
2022/04/10 02:55:50;;;;;;;3.97;3.17;;;;;;;;;;6219688;28;20128;-81
2022/04/10 02:58:53;;;;;;;5.13;2.97;;;;;;;;;;6220277;28;20412;-81
2022/04/10 03:01:56;;;;;;;3.50;2.92;;;;;;;;;;6220474;28;20183;-81
2022/04/10 03:05:00;;;;;;;5.57;3.70;;;;;;;;;;6220626;28;20041;-84
2022/04/10 03:08:03;;;;;;;4.80;3.03;;;;;;;;;;6220152;28;20053;-84
2022/04/10 03:11:08;;;;;;;4.30;2.97;;;;;;;;;;6220180;28;20053;-85
2022/04/10 03:14:11;;;;;;;4.20;3.08;;;;;;;;;;6219299;28;20042;-80
2022/04/10 03:17:15;;;;;;;7.30;3.30;;;;;;;;;;6221122;28;20451;-81
2022/04/10 03:20:18;;;;;;;5.90;3.45;;;;;;;;;;6219632;28;20046;-81
2022/04/10 03:23:21;;;;;;;4.78;3.30;;;;;;;;;;6219463;28;20394;-80
2022/04/10 03:26:25;;;;;;;4.25;3.20;;;;;;;;;;6220497;28;20064;-80
2022/04/10 03:29:29;;;;;;;6.93;3.92;;;;;;;;;;6219679;28;20065;-81
2022/04/10 03:32:32;;;;;;;5.85;3.55;;;;;;;;;;6221601;28;20042;-81
2022/04/10 03:35:36;;;;;;;4.78;3.60;;;;;;;;;;6218603;28;20485;-80
2022/04/10 03:38:43;;;;;;;5.32;3.90;;;;;;;;;;6219644;28;20042;-80
2022/04/10 03:41:49;;;;;;;5.07;3.30;;;;;;;;;;6219101;28;20048;-84
2022/04/10 03:44:52;;;;;;;5.80;3.95;;;;;;;;;;6219017;28;20493;-81
2022/04/10 03:47:56;;;;;;;4.55;3.85;;;;;;;;;;6218848;28;20492;-81
2022/04/10 03:51:03;;;;;;;5.45;3.92;;;;;;;;;;6219475;28;20120;-81
2022/04/10 03:54:08;;;;;;;5.25;3.90;;;;;;;;;;6220365;28;20042;-81
2022/04/10 03:57:12;;;;;;;6.18;4.03;;;;;;;;;;6218174;28;20046;-83
2022/04/10 04:00:16;;;;;;;6.40;3.95;;;;;;;;;;6219394;28;20050;-82
2022/04/10 04:03:27;;;;;;;5.72;4.10;;;;;;;;;;6218599;28;20467;-81
2022/04/10 04:06:30;;;;;;;4.85;3.95;;;;;;;;;;6218568;28;20053;-81
2022/04/10 04:09:33;;;;;;;5.30;3.72;;;;;;;;;;6218399;28;20050;-80
2022/04/10 04:12:38;;;;;;;5.05;3.72;;;;;;;;;;6218381;28;20529;-80
2022/04/10 04:15:41;;;;;;;5.40;3.80;;;;;;;;;;6219921;28;20436;-81
2022/04/10 04:18:45;;;;;;;7.28;5.05;;;;;;;;;;6217493;28;20385;-82
2022/04/10 04:21:48;;;;;;;6.88;4.20;;;;;;;;;;6219746;28;20050;-82
2022/04/10 04:24:51;;;;;;;8.57;4.57;;;;;;;;;;6218141;28;20062;-81
2022/04/10 04:27:57;;;;;;;7.85;4.35;;;;;;;;;;6217862;28;20049;-81
2022/04/10 04:31:00;;;;;;;7.05;5.28;;;;;;;;;;6218060;28;20042;-83
2022/04/10 04:34:04;;;;;;;7.55;4.50;;;;;;;;;;6217841;28;20180;-81
2022/04/10 04:37:09;;;;;;;7.68;4.40;;;;;;;;;;6218115;28;20042;-81
2022/04/10 04:40:13;;;;;;;6.37;4.43;;;;;;;;;;6217142;28;20048;-80
2022/04/10 04:43:17;;;;;;;7.45;4.63;;;;;;;;;;6219438;28;20046;-80
2022/04/10 04:46:21;;;;;;;9.13;5.00;;;;;;;;;;6218111;28;20042;-83
2022/04/10 04:49:25;;;;;;;6.75;4.18;;;;;;;;;;6217318;28;20053;-82
2022/04/10 04:52:34;;;;;;;6.90;4.90;;;;;;;;;;6217875;28;20477;-82
2022/04/10 04:55:37;;;;;;;6.63;4.28;;;;;;;;;;6218738;28;20504;-83
2022/04/10 04:58:42;;;;;;;9.55;5.47;;;;;;;;;;6218034;28;20042;-82
2022/04/10 05:01:45;;;;;;;8.15;4.63;;;;;;;;;;6216964;28;20042;-82
2022/04/10 05:04:51;;;;;;;6.38;4.65;;;;;;;;;;6217271;28;20060;-83
2022/04/10 05:07:54;;;;;;;6.32;4.30;;;;;;;;;;6217334;28;20515;-82
2022/04/10 05:10:59;;;;;;;5.95;4.60;;;;;;;;;;6216569;28;20128;-82
2022/04/10 05:14:05;;;;;;;10.23;4.43;;;;;;;;;;6217556;28;20053;-83
2022/04/10 05:17:08;;;;;;;6.60;4.68;;;;;;;;;;6216587;28;20056;-80
2022/04/10 05:20:16;;;;;;;8.27;4.63;;;;;;;;;;6217307;28;20050;-80
2022/04/10 05:23:28;;;;;;;8.00;4.80;;;;;;;;;;6216376;28;20056;-79
2022/04/10 05:26:38;;;;;;;6.13;4.72;;;;;;;;;;6217356;28;20083;-80
2022/04/10 05:29:43;;;;;;;6.35;4.55;;;;;;;;;;6218130;28;20042;-81
2022/04/10 05:32:46;;;;;;;7.60;4.72;;;;;;;;;;6216497;28;20050;-81
2022/04/10 05:35:53;;;;;;;8.05;4.30;;;;;;;;;;6216881;28;20056;-81
2022/04/10 05:38:56;;;;;;;;;;;;;;;;;;6217133;28;20046;-79
2022/04/10 05:42:01;;;;;;;9.52;4.65;;;;;;;;;;6216912;28;20331;-80
2022/04/10 05:45:06;;;;;;;6.82;4.32;;;;;;;;;;6217713;28;20041;-81
2022/04/10 05:48:13;;;;;;;5.43;4.15;;;;;;;;;;6217000;28;20100;-79
2022/04/10 05:51:16;;;;;;;6.07;4.28;;;;;;;;;;6216949;28;20050;-82
2022/04/10 05:54:19;;;;;;;6.72;3.95;;;;;;;;;;6215747;28;20052;-80
2022/04/10 05:57:26;;;;;;;5.95;4.10;;;;;;;;;;6216667;28;20373;-79
2022/04/10 06:00:30;;;;;;;5.40;4.05;;;;;;;;;;6216340;28;20508;-85
2022/04/10 06:03:44;;;;;;;6.05;3.88;;;;;;;;;;6216678;28;20045;-80
2022/04/10 06:06:49;;;;;;;7.17;4.73;;;;;;;;;;6216017;28;20046;-81
2022/04/10 06:09:59;;;;;;;6.32;4.47;;;;;;;;;;6216368;28;20046;-81
2022/04/10 06:13:09;;;;;;;6.53;4.60;;;;;;;;;;6216688;28;20064;-83
2022/04/10 06:16:28;;;;;;;5.30;3.78;;;;;;;;;;6216525;28;20320;-82
2022/04/10 06:19:32;;;;;;;8.27;4.45;;;;;;;;;;6216101;28;20412;-84
2022/04/10 06:22:41;;;;;;;6.07;4.57;;;;;;;;;;6216291;28;20050;-81
2022/04/10 06:25:46;;;;;;;6.53;4.35;;;;;;;;;;6216645;28;20050;-81
2022/04/10 06:28:50;;;;;;;6.30;4.20;;;;;;;;;;6215744;28;20034;-83
2022/04/10 06:32:03;;;;;;;6.75;4.85;;;;;;;;;;6220857;28;20432;-81
2022/04/10 06:35:15;;;;;;;5.18;4.03;;;;;;;;;;6220790;28;20038;-81
2022/04/10 06:38:18;;;;;;;7.50;4.53;;;;;;;;;;6222167;28;20053;-78
2022/04/10 06:41:27;;;;;;;5.15;4.07;;;;;;;;;;6220187;28;20049;-79
2022/04/10 06:44:32;;;;;;;6.55;4.25;;;;;;;;;;6220892;28;20117;-78
2022/04/10 06:47:45;;;;;;;6.22;4.20;;;;;;;;;;6220630;28;20053;-80
2022/04/10 06:50:49;;;;;;;5.47;4.40;;;;;;;;;;6219936;28;20718;-80
2022/04/10 06:53:59;;;;;;;5.90;4.00;;;;;;;;;;6222661;28;20057;-79
2022/04/10 06:57:03;;;;;;;5.75;4.40;;;;;;;;;;6221244;28;20056;-80
2022/04/10 07:00:07;;;;;;;5.45;3.65;;;;;;;;;;6220356;28;20042;-82
2022/04/10 07:03:16;;;;;;;6.13;4.05;;;;;;;;;;6218954;28;20057;-80
2022/04/10 07:06:19;;;;;;;5.18;3.80;;;;;;;;;;6220032;28;20049;-80
2022/04/10 07:09:23;;;;;;;4.70;3.53;;;;;;;;;;6220151;28;20067;-78
2022/04/10 07:12:31;;;;;;;6.00;3.88;;;;;;;;;;6219955;28;20054;-82
2022/04/10 07:15:34;;;;;;;7.93;4.28;;;;;;;;;;6220837;28;20057;-82
2022/04/10 07:18:43;;;;;;;4.78;3.75;;;;;;;;;;6218667;28;20049;-81
2022/04/10 07:25:14;;;;;;;5.97;4.10;;;;;;;;;;6218602;28;20050;-79
2022/04/10 07:28:20;;;;;;;4.32;3.47;;;;;;;;;;6219655;28;20076;-79
2022/04/10 07:31:27;;;;;;;6.35;3.83;;;;;;;;;;6219275;28;20059;-78
2022/04/10 07:34:31;;;;;;;5.53;3.63;;;;;;;;;;6219102;28;20050;-79
2022/04/10 07:37:55;;;;;;;4.60;3.42;;;;;;;;;;6219699;28;20416;-77
2022/04/10 07:40:58;;;;;;;4.10;3.50;;;;;;;;;;6219029;28;20510;-81
2022/04/10 07:44:08;;;;;;;3.90;3.38;;;;;;;;;;6218916;28;20453;-79
2022/04/10 07:47:25;;;;;;;5.32;3.67;;;;;;;;;;6218436;28;20089;-80
2022/04/10 07:50:32;;;;;;;4.20;3.35;;;;;;;;;;6218637;28;20462;-79
2022/04/10 07:53:39;;;;;;;3.55;3.00;;;;;;;;;;6218766;28;20050;-81
2022/04/10 07:56:43;;;;;;;4.03;3.15;;;;;;;;;;6218146;28;20041;-78
2022/04/10 07:59:51;;;;;;;3.15;2.70;;;;;;;;;;6217630;28;20050;-82
2022/04/10 08:03:14;;;;;;;5.80;4.15;;;;;;;;;;6219048;28;20057;-81
2022/04/10 08:06:27;;;;;;;6.15;3.45;;;;;;;;;;6219730;28;20054;-80
2022/04/10 08:09:34;;;;;;;6.22;3.20;;;;;;;;;;6219617;28;20060;-81
2022/04/10 08:12:37;;;;;;;4.88;3.15;;;;;;;;;;6218842;28;20046;-80
2022/04/10 08:15:42;;;;;;;4.93;3.30;;;;;;;;;;6220092;28;20408;-79
2022/04/10 08:18:46;;;;;;;4.00;3.30;;;;;;;;;;6218083;28;20071;-76
2022/04/10 08:21:50;;;;;;;5.63;3.50;;;;;;;;;;6218722;28;20486;-81
2022/04/10 08:24:53;;;;;;;3.95;3.15;;;;;;;;;;6217772;28;20104;-82
2022/04/10 08:27:57;;;;;;;3.88;3.47;;;;;;;;;;6219407;28;20046;-81
2022/04/10 08:31:02;;;;;;;4.32;3.50;;;;;;;;;;6218579;28;20567;-76
2022/04/10 08:34:08;;;;;;;4.97;3.28;;;;;;;;;;6218012;28;20150;-78
2022/04/10 08:37:12;;;;;;;4.00;3.33;;;;;;;;;;6217317;28;20050;-79
2022/04/10 08:40:15;;;;;;;4.40;2.95;;;;;;;;;;6217447;28;20057;-79
2022/04/10 08:43:19;;;;;;;3.63;2.72;;;;;;;;;;6215751;28;20052;-77
2022/04/10 08:46:22;;;;;;;2.75;2.53;;;;;;;;;;6215709;28;20054;-78
2022/04/10 08:49:25;;;;;;;6.10;3.10;;;;;;;;;;6216015;28;20640;-77
2022/04/10 08:52:30;;;;;;;4.68;2.72;;;;;;;;;;6212115;28;20116;-78
2022/04/10 08:55:33;;;;;;;3.72;2.60;;;;;;;;;;6212076;28;20042;-76
2022/04/10 08:58:36;;;;;;;3.63;2.40;;;;;;;;;;6212532;28;20054;-78
2022/04/10 09:01:39;;;;;;;2.65;2.38;;;;;;;;;;6212602;28;20168;-79
2022/04/10 09:04:42;;;;;;;7.30;3.00;;;;;;;;;;6212613;28;20116;-78
2022/04/10 09:08:05;;;;;;;5.03;2.80;;;;;;;;;;6214996;28;20087;-78
2022/04/10 09:11:08;;;;;;;2.47;2.00;;;;;;;;;;6215036;28;20497;-77
2022/04/10 09:14:11;;;;;;;4.93;2.45;;;;;;;;;;6216538;28;20049;-78
2022/04/10 09:17:15;;;;;;;3.35;2.38;;;;;;;;;;6216399;28;20408;-78
2022/04/10 09:20:18;;;;;;;3.72;2.40;;;;;;;;;;6218119;28;20511;-77
2022/04/10 09:23:23;;;;;;;2.90;2.50;;;;;;;;;;6217214;28;20058;-79
2022/04/10 09:26:43;;;;;;;2.65;2.40;;;;;;;;;;6217064;28;20461;-78
2022/04/10 09:29:50;;;;;;;5.10;2.70;;;;;;;;;;6218181;28;20103;-78
2022/04/10 09:32:53;;;;;;;4.65;2.90;;;;;;;;;;6217764;28;20053;-78
2022/04/10 09:35:56;;;;;;;3.42;2.97;;;;;;;;;;6217633;28;20046;-77
2022/04/10 09:39:01;;;;;;;3.45;2.88;;;;;;;;;;6216126;28;20049;-77
2022/04/10 09:42:06;;;;;;;5.50;2.30;;;;;;;;;;6217696;28;20068;-77
2022/04/10 09:45:26;;;;;;;3.45;1.90;;;;;;;;;;6218269;28;20042;-77
2022/04/10 09:48:29;;;;;;;3.85;1.77;;;;;;;;;;6217348;28;20057;-77
2022/04/10 09:51:32;;;;;;;3.97;2.08;;;;;;;;;;6218010;28;20118;-76
2022/04/10 09:54:37;;;;;;;2.92;1.90;;;;;;;;;;6217670;28;20046;-76
2022/04/10 09:57:49;;;;;;;4.05;1.85;;;;;;;;;;6217716;28;20053;-77
2022/04/10 10:00:54;;;;;;;4.13;1.90;;;;;;;;;;6217233;28;20084;-76
2022/04/10 10:04:02;;;;;;;2.75;1.75;;;;;;;;;;6219627;28;20042;-79
2022/04/10 10:07:06;;;;;;;2.72;1.90;;;;;;;;;;6222428;28;20053;-77
2022/04/10 10:10:11;;;;;;;5.50;2.30;;;;;;;;;;6222274;28;20079;-78
2022/04/10 10:13:14;;;;;;;7.65;1.83;;;;;;;;;;6223222;28;20034;-78
2022/04/10 10:16:18;;;;;;;2.45;1.90;;;;;;;;;;6222576;28;20050;-77
2022/04/10 10:19:24;;;;;;;2.03;1.60;;;;;;;;;;6221313;28;20050;-79
2022/04/10 10:22:27;;;;;;;3.15;1.73;;;;;;;;;;6221934;28;20518;-78
2022/04/10 10:25:36;;;;;;;4.15;2.10;;;;;;;;;;6222862;28;20420;-79
2022/04/10 10:28:59;;;;;;;3.00;1.90;;;;;;;;;;6220503;28;20057;-78
2022/04/10 10:32:07;;;;;;;2.67;1.73;;;;;;;;;;6222120;28;20050;-78
2022/04/10 10:35:11;;;;;;;3.40;2.00;;;;;;;;;;6220634;28;20129;-78
2022/04/10 10:38:21;;;;;;;2.58;1.70;;;;;;;;;;6220372;28;20046;-77
2022/04/10 10:41:32;;;;;;;2.65;1.92;;;;;;;;;;6221910;28;20048;-76
2022/04/10 10:44:48;;;;;;;2.58;1.77;;;;;;;;;;6220555;28;20056;-77
2022/04/10 10:48:02;;;;;;;2.80;1.90;;;;;;;;;;6221752;28;20054;-77
2022/04/10 10:51:24;;;;;;;2.53;1.92;;;;;;;;;;6220671;28;20054;-77
2022/04/10 10:54:30;;;;;;;2.10;1.90;;;;;;;;;;6221488;28;20060;-77
2022/04/10 10:57:41;;;;;;;2.17;1.88;;;;;;;;;;6220519;28;20050;-76
2022/04/10 11:00:45;;;;;;;2.53;1.90;;;;;;;;;;6221633;28;20077;-77
2022/04/10 11:03:59;;;;;;;2.97;2.03;;;;;;;;;;6221039;28;20045;-76
2022/04/10 11:07:11;;;;;;;3.38;1.98;;;;;;;;;;6221284;28;20050;-77
2022/04/10 11:10:14;;;;;;;3.53;2.25;;;;;;;;;;6218770;28;20555;-77
2022/04/10 11:13:19;;;;;;;5.82;2.17;;;;;;;;;;6220007;28;20080;-76
2022/04/10 11:16:22;;;;;;;2.80;1.80;;;;;;;;;;6218587;28;20409;-76
2022/04/10 11:19:25;;;;;;;2.35;1.85;;;;;;;;;;6220559;28;20050;-76
2022/04/10 11:22:31;;;;;;;1.60;1.50;;;;;;;;;;6220852;28;20048;-77
2022/04/10 11:25:39;;;;;;;4.70;1.70;;;;;;;;;;6220753;28;20073;-77
2022/04/10 11:29:02;;;;;;;3.63;1.80;;;;;;;;;;6220271;28;20531;-78
2022/04/10 11:32:05;;;;;;;4.15;1.52;;;;;;;;;;6219936;28;20553;-77
2022/04/10 11:35:14;;;;;;;4.80;1.65;;;;;;;;;;6220166;28;20046;-76
2022/04/10 11:38:17;;;;;;;3.22;1.40;;;;;;;;;;6220222;28;20049;-78
2022/04/10 11:41:21;;;;;;;2.38;1.50;;;;;;;;;;6220222;28;20536;-78
2022/04/10 11:44:26;;;;;;;3.05;1.33;;;;;;;;;;6220477;28;20133;-78
2022/04/10 11:47:29;;;;;;;2.92;1.27;;;;;;;;;;6220561;28;20069;-77
2022/04/10 11:50:33;;;;;;;2.55;1.27;;;;;;;;;;6220137;28;20073;-78
2022/04/10 11:53:36;;;;;;;1.85;1.35;;;;;;;;;;6219513;28;20049;-77
2022/04/10 11:56:39;;;;;;;1.23;1.00;;;;;;;;;;6218965;28;20041;-77
2022/04/10 11:59:49;;;;;;;2.55;1.27;;;;;;;;;;6219298;28;20046;-79
2022/04/10 12:02:53;;;;;;;1.25;1.17;;;;;;;;;;6218832;28;20045;-79
2022/04/10 12:05:56;;;;;;;3.75;1.40;;;;;;;;;;6220236;28;20046;-76
2022/04/10 12:09:00;;;;;;;2.45;1.13;;;;;;;;;;6219387;28;20045;-76
2022/04/10 12:12:06;;;;;;;2.22;1.20;;;;;;;;;;6220027;28;20383;-76
2022/04/10 12:15:11;;;;;;;;;;;;;;;;;;6219391;28;20140;-78
2022/04/10 12:18:16;;;;;;;1.15;1.05;;;;;;;;;;6219958;28;19928;-78
2022/04/10 12:21:22;;;;;;;2.03;1.40;;;;;;;;;;6218465;28;20060;-79
2022/04/10 12:24:25;;;;;;;1.00;0.90;;;;;;;;;;6217518;28;20498;-76
2022/04/10 12:27:28;;;;;;;1.38;0.90;;;;;;;;;;6219018;28;20062;-78
2022/04/10 12:30:31;;;;;;;1.88;0.90;;;;;;;;;;6219918;28;20057;-78
2022/04/10 12:33:36;;;;;;;2.65;1.08;;;;;;;;;;6219237;28;20103;-78
2022/04/10 12:36:45;;;;;;;2.63;1.00;;;;;;;;;;6217136;28;20049;-79
2022/04/10 12:39:48;;;;;;;2.00;1.00;;;;;;;;;;6218291;28;20492;-77
2022/04/10 12:42:58;;;;;;;2.45;0.90;;;;;;;;;;6217923;28;20077;-78
2022/04/10 12:46:08;;;;;;;3.15;1.20;;;;;;;;;;6217484;28;20046;-77
2022/04/10 12:49:17;;;;;;;1.20;1.10;;;;;;;;;;6219092;28;20069;-77
2022/04/10 12:52:20;;;;;;;3.00;1.42;;;;;;;;;;6219016;28;20057;-78
2022/04/10 12:55:23;;;;;;;1.85;1.23;;;;;;;;;;6217346;28;20050;-76
2022/04/10 12:58:27;;;;;;;1.38;1.27;;;;;;;;;;6218373;28;20045;-77
2022/04/10 13:01:30;;;;;;;2.65;1.52;;;;;;;;;;6219241;28;20173;-77
2022/04/10 13:04:35;;;;;;;4.32;1.27;;;;;;;;;;6218484;28;20123;-77
2022/04/10 13:07:54;;;;;;;1.67;1.15;;;;;;;;;;6217454;28;20042;-77
2022/04/10 13:10:57;;;;;;;1.48;1.05;;;;;;;;;;6218350;28;20041;-76
2022/04/10 13:14:20;;;;;;;2.45;1.30;;;;;;;;;;6217567;28;20053;-78
2022/04/10 13:17:30;;;;;;;1.33;1.15;;;;;;;;;;6218089;28;20065;-76
2022/04/10 13:20:37;;;;;;;2.67;1.23;;;;;;;;;;6215890;28;20052;-78
2022/04/10 13:23:43;;;;;;;12.20;7.28;;;;;;;;;;6218304;28;20054;-78
2022/04/10 13:26:46;;;;;;;2.47;1.33;;;;;;;;;;6217746;28;20072;-76
2022/04/10 13:29:49;;;;;;;2.03;1.38;;;;;;;;;;6217261;28;20124;-76
2022/04/10 13:32:52;;;;;;;2.45;1.50;;;;;;;;;;6216605;28;20048;-76
2022/04/10 13:35:57;;;;;;;1.98;1.40;;;;;;;;;;6216408;28;20050;-76
2022/04/10 13:39:00;;;;;;;2.17;1.73;;;;;;;;;;6217128;28;20559;-76
2022/04/10 13:42:04;;;;;;;1.50;1.40;;;;;;;;;;6214533;28;20554;-77
2022/04/10 13:45:08;;;;;;;2.65;1.65;;;;;;;;;;6217408;28;20049;-75
2022/04/10 13:48:11;;;;;;;4.25;1.95;;;;;;;;;;6216383;28;20054;-75
2022/04/10 13:51:16;;;;;;;1.98;1.75;;;;;;;;;;6216400;28;20041;-75
2022/04/10 13:54:19;;;;;;;4.40;1.75;;;;;;;;;;6216737;28;20046;-75
2022/04/10 13:57:22;;;;;;;2.80;1.60;;;;;;;;;;6216216;28;20100;-75
2022/04/10 14:00:25;;;;;;;3.85;2.65;;;;;;;;;;6216070;28;20431;-74
2022/04/10 14:03:29;;;;;;;3.78;2.00;;;;;;;;;;6214722;28;20077;-75
2022/04/10 14:06:33;;;;;;;3.33;2.03;;;;;;;;;;6214902;28;20073;-76
2022/04/10 14:09:37;;;;;;;4.85;1.60;;;;;;;;;;6214575;28;20046;-76
2022/04/10 14:12:40;;;;;;;1.88;1.70;;;;;;;;;;6214510;28;20077;-76
2022/04/10 14:15:43;;;;;;;2.00;1.67;;;;;;;;;;6213426;28;20050;-79
2022/04/10 14:18:46;;;;;;;2.53;1.63;;;;;;;;;;6213217;28;20113;-76
2022/04/10 14:21:52;;;;;;;2.72;1.70;;;;;;;;;;6214323;28;20440;-77
2022/04/10 14:24:55;;;;;;;2.63;1.75;;;;;;;;;;6217702;28;20416;-76
2022/04/10 14:28:00;;;;;;;;;;;;;;;;;;6217754;28;20104;-76
2022/04/10 14:31:04;;;;;;;2.85;1.80;;;;;;;;;;6216702;28;19928;-76
2022/04/10 14:34:10;;;;;;;2.70;2.00;;;;;;;;;;6217345;28;20048;-76
2022/04/10 14:37:14;;;;;;;1.88;1.60;;;;;;;;;;6217048;28;20053;-82
2022/04/10 14:40:17;;;;;;;1.70;1.45;;;;;;;;;;6217070;28;20050;-76
2022/04/10 14:43:20;;;;;;;1.40;1.30;;;;;;;;;;6217459;28;20065;-76
2022/04/10 14:46:24;;;;;;;2.95;1.80;;;;;;;;;;6217317;28;20053;-76
2022/04/10 14:49:27;;;;;;;3.85;1.40;;;;;;;;;;6216819;28;20477;-76
2022/04/10 14:52:32;;;;;;;2.53;1.70;;;;;;;;;;6220429;28;20413;-77
2022/04/10 14:55:35;;;;;;;2.58;1.73;;;;;;;;;;6221979;28;20057;-76
2022/04/10 14:58:38;;;;;;;2.03;1.63;;;;;;;;;;6221459;28;20084;-76
2022/04/10 15:01:42;;;;;;;1.90;1.70;;;;;;;;;;6220591;28;20622;-75
2022/04/10 15:04:45;;;;;;;3.70;1.70;;;;;;;;;;6221670;28;20041;-76
2022/04/10 15:07:51;;;;;;;1.95;1.45;;;;;;;;;;6219587;28;20500;-76
2022/04/10 15:10:57;;;;;;;3.15;1.63;;;;;;;;;;6220468;28;20410;-76
2022/04/10 15:14:02;;;;;;;1.83;1.50;;;;;;;;;;6221033;28;20558;-76
2022/04/10 15:17:05;;;;;;;3.08;1.88;;;;;;;;;;6220920;28;20096;-76
2022/04/10 15:20:10;;;;;;;3.65;2.00;;;;;;;;;;6220597;28;20050;-77
2022/04/10 15:23:15;;;;;;;3.90;2.38;;;;;;;;;;6215928;28;20058;-77
2022/04/10 15:26:18;;;;;;;3.13;1.83;;;;;;;;;;6196483;28;20453;-75
2022/04/10 15:29:21;;;;;;;3.20;2.20;;;;;;;;;;6218693;28;20448;-76
2022/04/10 15:32:24;;;;;;;2.00;1.77;;;;;;;;;;6203362;28;20058;-76
2022/04/10 15:35:27;;;;;;;3.78;2.00;;;;;;;;;;6196675;28;20101;-80
2022/04/10 15:38:32;;;;;;;2.53;1.88;;;;;;;;;;6207884;28;20046;-76
2022/04/10 15:41:42;;;;;;;3.60;1.63;;;;;;;;;;6195552;28;20054;-77
2022/04/10 15:44:45;;;;;;;2.80;1.70;;;;;;;;;;6195903;28;20546;-76
2022/04/10 15:47:48;;;;;;;3.92;2.40;;;;;;;;;;6195575;28;20050;-77
2022/04/10 15:50:52;;;;;;;5.32;2.40;;;;;;;;;;6193830;28;20392;-79
2022/04/10 15:53:57;;;;;;;4.20;2.17;;;;;;;;;;6196341;28;20492;-78
2022/04/10 15:57:02;;;;;;;5.00;2.38;;;;;;;;;;6194953;28;20057;-83
2022/04/10 16:00:07;;;;;;;5.43;1.98;;;;;;;;;;6194278;28;20409;-80
2022/04/10 16:03:11;;;;;;;4.37;2.10;;;;;;;;;;6195978;28;20070;-82
2022/04/10 16:06:14;;;;;;;2.55;2.00;;;;;;;;;;6196443;28;20303;-79
2022/04/10 16:09:19;;;;;;;3.03;2.05;;;;;;;;;;6196489;28;20070;-81
2022/04/10 16:12:22;;;;;;;5.80;1.80;;;;;;;;;;6220902;23;20505;-78
2022/04/10 16:15:25;;;;;;;3.20;1.90;;;;;;;;;;6222859;28;20060;-86
2022/04/10 16:18:29;;;;;;;2.67;1.50;;;;;;;;;;6212400;28;20042;-85
2022/04/10 16:21:33;;;;;;;4.75;1.70;;;;;;;;;;6199841;28;20069;-78
2022/04/10 16:24:38;;;;;;;4.95;2.22;;;;;;;;;;6199123;28;20077;-79
2022/04/10 16:31:02;;;;;;;3.88;1.92;;;;;;;;;;6197014;28;20752;-79
2022/04/10 16:34:20;;;;;;;4.30;2.03;;;;;;;;;;6198333;28;20053;-79
2022/04/10 16:37:23;;;;;;;5.57;2.20;;;;;;;;;;6197680;28;20409;-77
2022/04/10 16:40:29;;;;;;;2.95;1.98;;;;;;;;;;6173744;28;20121;-81
2022/04/10 16:43:37;;;;;;;4.15;1.85;;;;;;;;;;6173816;28;20051;-81
2022/04/10 16:46:40;;;;;;;2.78;1.80;;;;;;;;;;6174233;28;20094;-79
2022/04/10 16:49:43;;;;;;;4.10;2.00;;;;;;;;;;6190701;28;20058;-80
2022/04/10 16:52:47;;;;;;;4.55;2.08;;;;;;;;;;6197321;28;20437;-78
2022/04/10 16:55:54;;;;;;;4.45;1.80;;;;;;;;;;6197261;28;20092;-75
2022/04/10 16:58:57;;;;;;;21.20;10.63;;;;;;;;;;6194660;28;20121;-87
2022/04/10 17:02:01;;;;;;;5.45;2.35;;;;;;;;;;6196432;28;20046;-79
2022/04/10 17:05:05;;;;;;;7.85;3.90;;;;;;;;;;6195209;28;20492;-79
2022/04/10 17:08:11;;;;;;;4.22;2.63;;;;;;;;;;6189426;28;20043;-82
2022/04/10 17:11:16;;;;;;;6.25;3.38;;;;;;;;;;6179560;28;20057;-81
2022/04/10 17:14:19;;;;;;;9.70;3.90;;;;;;;;;;6203330;28;20102;-85
2022/04/10 17:17:24;;;;;;;7.05;5.07;;;;;;;;;;6174694;28;20370;-80
2022/04/10 17:20:28;;;;;;;7.28;3.80;;;;;;;;;;6172388;28;20053;-76
2022/04/10 17:23:31;;;;;;;6.78;3.17;;;;;;;;;;6173356;28;20549;-77
2022/04/10 17:26:36;;;;;;;5.75;3.40;;;;;;;;;;6173779;28;20155;-78
2022/04/10 17:29:40;;;;;;;4.30;1.40;;;;;;;;;;6175245;28;20121;-82
2022/04/10 17:32:43;;;;;;;6.35;1.30;;;;;;;;;;6184986;28;20507;-80
2022/04/10 17:35:46;;;;;;;3.30;1.60;;;;;;;;;;6196836;28;20050;-83
2022/04/10 17:38:50;;;;;;;3.30;1.60;;;;;;;;;;6195748;28;20137;-78
2022/04/10 17:41:57;;;;;;;5.10;1.98;;;;;;;;;;6195806;28;20044;-81
2022/04/10 17:45:00;;;;;;;4.05;2.30;;;;;;;;;;6196977;28;20074;-79
2022/04/10 17:48:04;;;;;;;5.65;3.53;;;;;;;;;;6196228;28;20050;-76
2022/04/10 17:51:07;;;;;;;3.45;1.80;;;;;;;;;;6195090;28;20520;-77
2022/04/10 17:54:11;;;;;;;4.13;1.80;;;;;;;;;;6196712;28;20073;-76
2022/04/10 17:57:17;;;;;;;7.55;2.90;;;;;;;;;;6196659;28;20050;-77
2022/04/10 18:00:20;;;;;;;4.75;2.28;;;;;;;;;;6194672;28;20054;-78
2022/04/10 18:03:26;;;;;;;9.52;4.05;;;;;;;;;;6195503;28;20042;-78
2022/04/10 18:06:30;;;;;;;4.53;1.60;;;;;;;;;;6197383;28;20125;-77
2022/04/10 18:09:33;;;;;;;5.88;1.55;;;;;;;;;;6195293;28;20050;-76
2022/04/10 18:12:39;;;;;;;4.45;2.10;;;;;;;;;;6195320;28;20078;-75
2022/04/10 18:15:43;;;;;;;33.33;15.00;;;;;;;;;;6192874;28;20053;-77
2022/04/10 18:18:46;;;;;;;3.60;1.80;;;;;;;;;;6192441;28;20042;-79
2022/04/10 18:21:51;;;;;;;4.30;1.42;;;;;;;;;;6192375;28;20050;-80
2022/04/10 18:24:54;;;;;;;6.10;1.67;;;;;;;;;;6193400;28;20053;-80
2022/04/10 18:28:01;;;;;;;3.13;1.50;;;;;;;;;;6197032;28;20046;-78
2022/04/10 18:31:04;;;;;;;3.92;1.42;;;;;;;;;;6196531;28;20070;-79
2022/04/10 18:34:07;;;;;;;4.88;1.48;;;;;;;;;;6197027;28;20057;-80
2022/04/10 18:37:10;;;;;;;3.22;1.60;;;;;;;;;;6195942;28;20124;-81